sensor_id;sensor_type;location;lat;lon;timestamp;P1;durP1;ratioP1;P2;durP2;ratioP2
76566;SDS011;65428;53.194;6.132;2023-07-13T00:00:23;12.38;;;2.63;;
76566;SDS011;65428;53.194;6.132;2023-07-13T00:02:50;11.82;;;2.05;;
76566;SDS011;65428;53.194;6.132;2023-07-13T00:05:19;6.90;;;1.17;;
76566;SDS011;65428;53.194;6.132;2023-07-13T00:07:46;6.50;;;1.00;;
76566;SDS011;65428;53.194;6.132;2023-07-13T00:10:13;5.13;;;0.88;;
76566;SDS011;65428;53.194;6.132;2023-07-13T00:12:39;5.75;;;0.80;;
76566;SDS011;65428;53.194;6.132;2023-07-13T00:15:16;6.80;;;1.00;;
76566;SDS011;65428;53.194;6.132;2023-07-13T00:17:51;6.35;;;0.90;;
76566;SDS011;65428;53.194;6.132;2023-07-13T00:20:23;6.43;;;1.17;;
76566;SDS011;65428;53.194;6.132;2023-07-13T00:22:51;8.80;;;1.45;;
76566;SDS011;65428;53.194;6.132;2023-07-13T00:25:25;10.13;;;1.77;;
76566;SDS011;65428;53.194;6.132;2023-07-13T00:27:53;8.75;;;1.30;;
76566;SDS011;65428;53.194;6.132;2023-07-13T00:30:22;10.40;;;1.33;;
76566;SDS011;65428;53.194;6.132;2023-07-13T00:32:49;8.05;;;1.10;;
76566;SDS011;65428;53.194;6.132;2023-07-13T00:35:15;8.45;;;1.00;;
76566;SDS011;65428;53.194;6.132;2023-07-13T00:37:41;7.93;;;1.17;;
76566;SDS011;65428;53.194;6.132;2023-07-13T00:40:07;7.22;;;1.00;;
76566;SDS011;65428;53.194;6.132;2023-07-13T00:42:35;6.63;;;0.88;;
76566;SDS011;65428;53.194;6.132;2023-07-13T00:47:53;5.27;;;0.50;;
76566;SDS011;65428;53.194;6.132;2023-07-13T00:50:22;4.30;;;0.80;;
76566;SDS011;65428;53.194;6.132;2023-07-13T00:52:49;4.80;;;0.60;;
76566;SDS011;65428;53.194;6.132;2023-07-13T00:55:19;4.88;;;0.40;;
76566;SDS011;65428;53.194;6.132;2023-07-13T00:57:46;2.88;;;0.30;;
76566;SDS011;65428;53.194;6.132;2023-07-13T01:00:12;3.08;;;0.43;;
76566;SDS011;65428;53.194;6.132;2023-07-13T01:02:39;4.30;;;0.60;;
76566;SDS011;65428;53.194;6.132;2023-07-13T01:05:11;3.42;;;0.40;;
76566;SDS011;65428;53.194;6.132;2023-07-13T01:07:40;3.53;;;0.55;;
76566;SDS011;65428;53.194;6.132;2023-07-13T01:10:07;3.83;;;0.50;;
76566;SDS011;65428;53.194;6.132;2023-07-13T01:12:33;3.38;;;0.40;;
76566;SDS011;65428;53.194;6.132;2023-07-13T01:15:00;4.22;;;0.40;;
76566;SDS011;65428;53.194;6.132;2023-07-13T01:17:27;4.50;;;0.60;;
76566;SDS011;65428;53.194;6.132;2023-07-13T01:19:54;4.53;;;0.60;;
76566;SDS011;65428;53.194;6.132;2023-07-13T01:22:20;3.40;;;0.57;;
76566;SDS011;65428;53.194;6.132;2023-07-13T01:24:51;4.87;;;0.50;;
76566;SDS011;65428;53.194;6.132;2023-07-13T01:27:24;5.30;;;0.70;;
76566;SDS011;65428;53.194;6.132;2023-07-13T01:29:52;4.43;;;0.50;;
76566;SDS011;65428;53.194;6.132;2023-07-13T01:32:19;3.72;;;0.40;;
76566;SDS011;65428;53.194;6.132;2023-07-13T01:34:49;2.75;;;0.50;;
76566;SDS011;65428;53.194;6.132;2023-07-13T01:37:16;6.70;;;0.60;;
76566;SDS011;65428;53.194;6.132;2023-07-13T01:39:42;3.28;;;0.50;;
76566;SDS011;65428;53.194;6.132;2023-07-13T01:42:08;5.30;;;0.50;;
76566;SDS011;65428;53.194;6.132;2023-07-13T01:44:34;4.87;;;0.50;;
76566;SDS011;65428;53.194;6.132;2023-07-13T01:47:00;3.87;;;0.50;;
76566;SDS011;65428;53.194;6.132;2023-07-13T01:49:26;3.27;;;0.40;;
76566;SDS011;65428;53.194;6.132;2023-07-13T01:51:52;3.30;;;0.60;;
76566;SDS011;65428;53.194;6.132;2023-07-13T01:54:18;6.63;;;0.60;;
76566;SDS011;65428;53.194;6.132;2023-07-13T01:56:44;3.72;;;0.57;;
76566;SDS011;65428;53.194;6.132;2023-07-13T01:59:10;2.90;;;0.30;;
76566;SDS011;65428;53.194;6.132;2023-07-13T02:01:36;3.45;;;0.38;;
76566;SDS011;65428;53.194;6.132;2023-07-13T02:04:02;3.20;;;0.45;;
76566;SDS011;65428;53.194;6.132;2023-07-13T02:06:28;3.50;;;0.50;;
76566;SDS011;65428;53.194;6.132;2023-07-13T02:08:54;3.37;;;0.50;;
76566;SDS011;65428;53.194;6.132;2023-07-13T02:11:20;4.57;;;0.60;;
76566;SDS011;65428;53.194;6.132;2023-07-13T02:13:46;5.70;;;0.65;;
76566;SDS011;65428;53.194;6.132;2023-07-13T02:16:12;6.30;;;0.45;;
76566;SDS011;65428;53.194;6.132;2023-07-13T02:18:38;3.40;;;0.40;;
76566;SDS011;65428;53.194;6.132;2023-07-13T02:21:04;4.07;;;0.60;;
76566;SDS011;65428;53.194;6.132;2023-07-13T02:23:30;3.80;;;0.50;;
76566;SDS011;65428;53.194;6.132;2023-07-13T02:25:56;3.50;;;0.40;;
76566;SDS011;65428;53.194;6.132;2023-07-13T02:28:23;4.30;;;0.40;;
76566;SDS011;65428;53.194;6.132;2023-07-13T02:30:49;3.90;;;0.63;;
76566;SDS011;65428;53.194;6.132;2023-07-13T02:33:15;5.40;;;0.70;;
76566;SDS011;65428;53.194;6.132;2023-07-13T02:35:41;4.70;;;0.90;;
76566;SDS011;65428;53.194;6.132;2023-07-13T02:38:07;5.57;;;0.63;;
76566;SDS011;65428;53.194;6.132;2023-07-13T02:40:34;5.80;;;0.80;;
76566;SDS011;65428;53.194;6.132;2023-07-13T02:43:02;5.78;;;1.13;;
76566;SDS011;65428;53.194;6.132;2023-07-13T02:45:28;5.93;;;1.40;;
76566;SDS011;65428;53.194;6.132;2023-07-13T02:47:54;6.13;;;1.15;;
76566;SDS011;65428;53.194;6.132;2023-07-13T02:50:20;8.03;;;1.70;;
76566;SDS011;65428;53.194;6.132;2023-07-13T02:52:46;7.97;;;1.45;;
76566;SDS011;65428;53.194;6.132;2023-07-13T02:55:12;8.77;;;2.00;;
76566;SDS011;65428;53.194;6.132;2023-07-13T02:57:37;6.03;;;1.40;;
76566;SDS011;65428;53.194;6.132;2023-07-13T03:00:04;8.40;;;2.03;;
76566;SDS011;65428;53.194;6.132;2023-07-13T03:02:31;8.30;;;1.93;;
76566;SDS011;65428;53.194;6.132;2023-07-13T03:04:58;8.57;;;1.90;;
76566;SDS011;65428;53.194;6.132;2023-07-13T03:07:23;7.97;;;2.03;;
76566;SDS011;65428;53.194;6.132;2023-07-13T03:09:56;9.88;;;2.67;;
76566;SDS011;65428;53.194;6.132;2023-07-13T03:12:23;8.68;;;2.50;;
76566;SDS011;65428;53.194;6.132;2023-07-13T03:14:49;9.90;;;2.95;;
76566;SDS011;65428;53.194;6.132;2023-07-13T03:17:15;10.45;;;3.25;;
76566;SDS011;65428;53.194;6.132;2023-07-13T03:19:41;11.20;;;3.00;;
76566;SDS011;65428;53.194;6.132;2023-07-13T03:22:07;10.48;;;3.33;;
76566;SDS011;65428;53.194;6.132;2023-07-13T03:24:33;11.40;;;2.78;;
76566;SDS011;65428;53.194;6.132;2023-07-13T03:27:01;12.82;;;3.50;;
76566;SDS011;65428;53.194;6.132;2023-07-13T03:29:29;13.15;;;3.08;;
76566;SDS011;65428;53.194;6.132;2023-07-13T03:31:55;9.57;;;3.55;;
76566;SDS011;65428;53.194;6.132;2023-07-13T03:34:21;12.17;;;3.70;;
76566;SDS011;65428;53.194;6.132;2023-07-13T03:36:47;10.32;;;3.53;;
76566;SDS011;65428;53.194;6.132;2023-07-13T03:39:12;11.85;;;3.78;;
76566;SDS011;65428;53.194;6.132;2023-07-13T03:41:38;15.63;;;4.38;;
76566;SDS011;65428;53.194;6.132;2023-07-13T03:44:04;11.55;;;3.88;;
76566;SDS011;65428;53.194;6.132;2023-07-13T03:46:30;12.03;;;3.50;;
76566;SDS011;65428;53.194;6.132;2023-07-13T03:48:56;12.57;;;3.65;;
76566;SDS011;65428;53.194;6.132;2023-07-13T03:51:22;14.13;;;3.42;;
76566;SDS011;65428;53.194;6.132;2023-07-13T03:53:49;16.73;;;4.03;;
76566;SDS011;65428;53.194;6.132;2023-07-13T03:56:15;14.07;;;3.92;;
76566;SDS011;65428;53.194;6.132;2023-07-13T03:58:43;10.73;;;3.50;;
76566;SDS011;65428;53.194;6.132;2023-07-13T04:01:12;10.70;;;3.47;;
76566;SDS011;65428;53.194;6.132;2023-07-13T04:03:39;11.13;;;3.92;;
76566;SDS011;65428;53.194;6.132;2023-07-13T04:06:06;11.95;;;4.00;;
76566;SDS011;65428;53.194;6.132;2023-07-13T04:08:34;11.55;;;3.90;;
76566;SDS011;65428;53.194;6.132;2023-07-13T04:11:02;14.83;;;4.40;;
76566;SDS011;65428;53.194;6.132;2023-07-13T04:13:29;12.27;;;3.88;;
76566;SDS011;65428;53.194;6.132;2023-07-13T04:15:55;15.88;;;4.47;;
76566;SDS011;65428;53.194;6.132;2023-07-13T04:18:21;13.95;;;4.50;;
76566;SDS011;65428;53.194;6.132;2023-07-13T04:20:47;15.40;;;5.05;;
76566;SDS011;65428;53.194;6.132;2023-07-13T04:23:15;16.75;;;4.75;;
76566;SDS011;65428;53.194;6.132;2023-07-13T04:25:45;15.05;;;4.53;;
76566;SDS011;65428;53.194;6.132;2023-07-13T04:28:12;18.10;;;4.93;;
76566;SDS011;65428;53.194;6.132;2023-07-13T04:30:38;16.65;;;4.75;;
76566;SDS011;65428;53.194;6.132;2023-07-13T04:33:03;15.05;;;4.35;;
76566;SDS011;65428;53.194;6.132;2023-07-13T04:35:29;14.43;;;4.72;;
76566;SDS011;65428;53.194;6.132;2023-07-13T04:37:56;15.13;;;4.63;;
76566;SDS011;65428;53.194;6.132;2023-07-13T04:40:22;15.07;;;4.87;;
76566;SDS011;65428;53.194;6.132;2023-07-13T04:42:48;14.13;;;4.20;;
76566;SDS011;65428;53.194;6.132;2023-07-13T04:45:14;15.60;;;4.82;;
76566;SDS011;65428;53.194;6.132;2023-07-13T04:47:40;14.18;;;4.40;;
76566;SDS011;65428;53.194;6.132;2023-07-13T04:50:07;12.38;;;3.50;;
76566;SDS011;65428;53.194;6.132;2023-07-13T04:52:35;13.18;;;4.18;;
76566;SDS011;65428;53.194;6.132;2023-07-13T04:55:02;13.27;;;3.80;;
76566;SDS011;65428;53.194;6.132;2023-07-13T04:57:28;12.68;;;3.30;;
76566;SDS011;65428;53.194;6.132;2023-07-13T04:59:53;11.45;;;3.20;;
76566;SDS011;65428;53.194;6.132;2023-07-13T05:02:20;11.98;;;2.88;;
76566;SDS011;65428;53.194;6.132;2023-07-13T05:04:49;7.40;;;2.35;;
76566;SDS011;65428;53.194;6.132;2023-07-13T05:07:15;8.93;;;2.60;;
76566;SDS011;65428;53.194;6.132;2023-07-13T05:09:41;9.43;;;2.50;;
76566;SDS011;65428;53.194;6.132;2023-07-13T05:12:08;12.40;;;2.95;;
76566;SDS011;65428;53.194;6.132;2023-07-13T05:14:35;9.60;;;2.40;;
76566;SDS011;65428;53.194;6.132;2023-07-13T05:17:00;9.50;;;2.63;;
76566;SDS011;65428;53.194;6.132;2023-07-13T05:19:26;7.88;;;2.15;;
76566;SDS011;65428;53.194;6.132;2023-07-13T05:21:53;10.93;;;2.85;;
76566;SDS011;65428;53.194;6.132;2023-07-13T05:24:18;8.57;;;1.90;;
76566;SDS011;65428;53.194;6.132;2023-07-13T05:26:44;8.13;;;2.17;;
76566;SDS011;65428;53.194;6.132;2023-07-13T05:29:11;7.27;;;1.90;;
76566;SDS011;65428;53.194;6.132;2023-07-13T05:31:36;7.00;;;1.77;;
76566;SDS011;65428;53.194;6.132;2023-07-13T05:34:02;6.20;;;1.58;;
76566;SDS011;65428;53.194;6.132;2023-07-13T05:36:28;7.80;;;1.45;;
76566;SDS011;65428;53.194;6.132;2023-07-13T05:38:54;9.73;;;1.80;;
76566;SDS011;65428;53.194;6.132;2023-07-13T05:41:20;8.33;;;1.80;;
76566;SDS011;65428;53.194;6.132;2023-07-13T05:43:46;9.85;;;1.77;;
76566;SDS011;65428;53.194;6.132;2023-07-13T05:46:12;5.35;;;1.38;;
76566;SDS011;65428;53.194;6.132;2023-07-13T05:48:38;7.90;;;1.65;;
76566;SDS011;65428;53.194;6.132;2023-07-13T05:51:04;7.20;;;1.45;;
76566;SDS011;65428;53.194;6.132;2023-07-13T05:53:30;5.77;;;1.30;;
76566;SDS011;65428;53.194;6.132;2023-07-13T05:55:56;7.85;;;1.40;;
76566;SDS011;65428;53.194;6.132;2023-07-13T05:58:21;6.68;;;1.25;;
76566;SDS011;65428;53.194;6.132;2023-07-13T06:00:48;6.80;;;1.40;;
76566;SDS011;65428;53.194;6.132;2023-07-13T06:03:14;4.80;;;1.08;;
76566;SDS011;65428;53.194;6.132;2023-07-13T06:05:41;7.03;;;1.45;;
76566;SDS011;65428;53.194;6.132;2023-07-13T06:08:07;5.17;;;1.07;;
76566;SDS011;65428;53.194;6.132;2023-07-13T06:10:34;5.18;;;1.00;;
76566;SDS011;65428;53.194;6.132;2023-07-13T06:13:00;6.25;;;0.90;;
76566;SDS011;65428;53.194;6.132;2023-07-13T06:15:26;4.82;;;1.02;;
76566;SDS011;65428;53.194;6.132;2023-07-13T06:17:52;5.53;;;0.93;;
76566;SDS011;65428;53.194;6.132;2023-07-13T06:20:18;4.97;;;0.77;;
76566;SDS011;65428;53.194;6.132;2023-07-13T06:22:44;4.75;;;1.08;;
76566;SDS011;65428;53.194;6.132;2023-07-13T06:25:10;3.80;;;0.70;;
76566;SDS011;65428;53.194;6.132;2023-07-13T06:27:36;5.23;;;0.67;;
76566;SDS011;65428;53.194;6.132;2023-07-13T06:30:02;5.55;;;0.70;;
76566;SDS011;65428;53.194;6.132;2023-07-13T06:32:28;3.65;;;0.60;;
76566;SDS011;65428;53.194;6.132;2023-07-13T06:34:54;5.28;;;0.70;;
76566;SDS011;65428;53.194;6.132;2023-07-13T06:37:20;4.50;;;0.70;;
76566;SDS011;65428;53.194;6.132;2023-07-13T06:39:46;3.67;;;0.68;;
76566;SDS011;65428;53.194;6.132;2023-07-13T06:42:11;3.97;;;0.55;;
76566;SDS011;65428;53.194;6.132;2023-07-13T06:44:37;4.95;;;0.63;;
76566;SDS011;65428;53.194;6.132;2023-07-13T06:47:03;7.17;;;0.70;;
76566;SDS011;65428;53.194;6.132;2023-07-13T06:49:29;4.63;;;0.83;;
76566;SDS011;65428;53.194;6.132;2023-07-13T06:51:55;4.72;;;0.60;;
76566;SDS011;65428;53.194;6.132;2023-07-13T06:54:21;4.93;;;0.85;;
76566;SDS011;65428;53.194;6.132;2023-07-13T06:56:47;6.65;;;0.80;;
76566;SDS011;65428;53.194;6.132;2023-07-13T06:59:13;5.17;;;0.80;;
76566;SDS011;65428;53.194;6.132;2023-07-13T07:01:38;4.65;;;0.90;;
76566;SDS011;65428;53.194;6.132;2023-07-13T07:04:04;4.60;;;0.75;;
76566;SDS011;65428;53.194;6.132;2023-07-13T07:06:30;8.17;;;1.53;;
76566;SDS011;65428;53.194;6.132;2023-07-13T07:08:56;8.05;;;1.30;;
76566;SDS011;65428;53.194;6.132;2023-07-13T07:11:23;6.70;;;0.98;;
76566;SDS011;65428;53.194;6.132;2023-07-13T07:13:50;7.07;;;1.23;;
76566;SDS011;65428;53.194;6.132;2023-07-13T07:16:17;8.10;;;1.17;;
76566;SDS011;65428;53.194;6.132;2023-07-13T07:18:44;6.00;;;1.10;;
76566;SDS011;65428;53.194;6.132;2023-07-13T07:21:10;7.07;;;1.50;;
76566;SDS011;65428;53.194;6.132;2023-07-13T07:23:36;6.47;;;1.35;;
76566;SDS011;65428;53.194;6.132;2023-07-13T07:26:02;7.05;;;1.30;;
76566;SDS011;65428;53.194;6.132;2023-07-13T07:28:28;7.60;;;1.35;;
76566;SDS011;65428;53.194;6.132;2023-07-13T07:30:55;8.20;;;1.23;;
76566;SDS011;65428;53.194;6.132;2023-07-13T07:33:23;7.03;;;1.10;;
76566;SDS011;65428;53.194;6.132;2023-07-13T07:35:49;6.38;;;1.10;;
76566;SDS011;65428;53.194;6.132;2023-07-13T07:38:16;5.22;;;1.17;;
76566;SDS011;65428;53.194;6.132;2023-07-13T07:40:42;6.60;;;1.40;;
76566;SDS011;65428;53.194;6.132;2023-07-13T07:43:10;7.18;;;0.90;;
76566;SDS011;65428;53.194;6.132;2023-07-13T07:45:38;4.40;;;0.90;;
76566;SDS011;65428;53.194;6.132;2023-07-13T07:48:05;7.85;;;1.20;;
76566;SDS011;65428;53.194;6.132;2023-07-13T07:50:31;6.10;;;1.30;;
76566;SDS011;65428;53.194;6.132;2023-07-13T07:52:58;5.90;;;1.10;;
76566;SDS011;65428;53.194;6.132;2023-07-13T07:55:24;8.83;;;1.40;;
76566;SDS011;65428;53.194;6.132;2023-07-13T07:57:54;4.63;;;1.30;;
76566;SDS011;65428;53.194;6.132;2023-07-13T08:00:21;7.80;;;1.98;;
76566;SDS011;65428;53.194;6.132;2023-07-13T08:02:47;7.03;;;2.15;;
76566;SDS011;65428;53.194;6.132;2023-07-13T08:05:13;7.18;;;1.73;;
76566;SDS011;65428;53.194;6.132;2023-07-13T08:07:40;6.97;;;2.05;;
76566;SDS011;65428;53.194;6.132;2023-07-13T08:10:06;6.40;;;1.80;;
76566;SDS011;65428;53.194;6.132;2023-07-13T08:12:33;7.53;;;2.15;;
76566;SDS011;65428;53.194;6.132;2023-07-13T08:15:03;5.18;;;1.60;;
76566;SDS011;65428;53.194;6.132;2023-07-13T08:17:29;5.75;;;1.33;;
76566;SDS011;65428;53.194;6.132;2023-07-13T08:19:56;6.22;;;1.75;;
76566;SDS011;65428;53.194;6.132;2023-07-13T08:22:21;4.53;;;1.02;;
76566;SDS011;65428;53.194;6.132;2023-07-13T08:24:47;5.67;;;1.67;;
76566;SDS011;65428;53.194;6.132;2023-07-13T08:27:20;7.40;;;1.50;;
76566;SDS011;65428;53.194;6.132;2023-07-13T08:29:47;4.68;;;1.33;;
76566;SDS011;65428;53.194;6.132;2023-07-13T08:32:13;7.25;;;1.80;;
76566;SDS011;65428;53.194;6.132;2023-07-13T08:34:39;6.50;;;2.08;;
76566;SDS011;65428;53.194;6.132;2023-07-13T08:37:06;6.82;;;1.50;;
76566;SDS011;65428;53.194;6.132;2023-07-13T08:39:32;4.60;;;1.35;;
76566;SDS011;65428;53.194;6.132;2023-07-13T08:42:04;5.75;;;1.10;;
76566;SDS011;65428;53.194;6.132;2023-07-13T08:47:21;5.10;;;1.10;;
76566;SDS011;65428;53.194;6.132;2023-07-13T08:49:48;4.82;;;0.90;;
76566;SDS011;65428;53.194;6.132;2023-07-13T08:55:17;3.67;;;1.05;;
76566;SDS011;65428;53.194;6.132;2023-07-13T08:57:48;6.38;;;1.20;;
76566;SDS011;65428;53.194;6.132;2023-07-13T09:00:33;4.00;;;0.80;;
76566;SDS011;65428;53.194;6.132;2023-07-13T09:03:07;3.63;;;0.70;;
76566;SDS011;65428;53.194;6.132;2023-07-13T09:05:46;3.50;;;0.70;;
76566;SDS011;65428;53.194;6.132;2023-07-13T09:11:36;3.33;;;0.60;;
76566;SDS011;65428;53.194;6.132;2023-07-13T09:17:11;3.92;;;0.60;;
76566;SDS011;65428;53.194;6.132;2023-07-13T09:19:43;3.25;;;0.55;;
76566;SDS011;65428;53.194;6.132;2023-07-13T09:22:14;2.70;;;0.60;;
76566;SDS011;65428;53.194;6.132;2023-07-13T09:27:20;2.35;;;0.50;;
76566;SDS011;65428;53.194;6.132;2023-07-13T09:29:55;2.25;;;0.35;;
76566;SDS011;65428;53.194;6.132;2023-07-13T09:32:30;2.35;;;0.40;;
76566;SDS011;65428;53.194;6.132;2023-07-13T09:34:58;2.50;;;0.30;;
76566;SDS011;65428;53.194;6.132;2023-07-13T09:37:28;2.10;;;0.20;;
76566;SDS011;65428;53.194;6.132;2023-07-13T09:39:56;2.55;;;0.20;;
76566;SDS011;65428;53.194;6.132;2023-07-13T09:42:23;2.08;;;0.30;;
76566;SDS011;65428;53.194;6.132;2023-07-13T09:44:52;2.53;;;0.30;;
76566;SDS011;65428;53.194;6.132;2023-07-13T09:47:21;4.00;;;0.40;;
76566;SDS011;65428;53.194;6.132;2023-07-13T09:49:54;2.50;;;0.50;;
76566;SDS011;65428;53.194;6.132;2023-07-13T09:52:25;3.30;;;0.40;;
76566;SDS011;65428;53.194;6.132;2023-07-13T09:54:53;3.40;;;0.32;;
76566;SDS011;65428;53.194;6.132;2023-07-13T09:57:24;3.03;;;0.40;;
76566;SDS011;65428;53.194;6.132;2023-07-13T09:59:53;2.30;;;0.30;;
76566;SDS011;65428;53.194;6.132;2023-07-13T10:02:26;2.28;;;0.40;;
76566;SDS011;65428;53.194;6.132;2023-07-13T10:07:31;2.40;;;0.20;;
76566;SDS011;65428;53.194;6.132;2023-07-13T10:09:58;1.83;;;0.30;;
76566;SDS011;65428;53.194;6.132;2023-07-13T10:12:29;2.90;;;0.30;;
76566;SDS011;65428;53.194;6.132;2023-07-13T10:15:00;1.67;;;0.20;;
76566;SDS011;65428;53.194;6.132;2023-07-13T10:17:29;2.20;;;0.20;;
76566;SDS011;65428;53.194;6.132;2023-07-13T10:20:03;1.75;;;0.20;;
76566;SDS011;65428;53.194;6.132;2023-07-13T10:22:45;1.50;;;0.20;;
76566;SDS011;65428;53.194;6.132;2023-07-13T10:25:31;2.25;;;0.30;;
76566;SDS011;65428;53.194;6.132;2023-07-13T10:28:09;1.60;;;0.30;;
76566;SDS011;65428;53.194;6.132;2023-07-13T10:30:54;3.72;;;0.32;;
76566;SDS011;65428;53.194;6.132;2023-07-13T10:33:23;2.65;;;0.40;;
76566;SDS011;65428;53.194;6.132;2023-07-13T10:35:50;2.03;;;0.40;;
76566;SDS011;65428;53.194;6.132;2023-07-13T10:38:22;4.05;;;0.55;;
76566;SDS011;65428;53.194;6.132;2023-07-13T10:43:26;3.00;;;0.50;;
76566;SDS011;65428;53.194;6.132;2023-07-13T10:45:57;3.88;;;0.50;;
76566;SDS011;65428;53.194;6.132;2023-07-13T10:48:25;4.45;;;0.60;;
76566;SDS011;65428;53.194;6.132;2023-07-13T10:50:52;3.72;;;0.35;;
76566;SDS011;65428;53.194;6.132;2023-07-13T10:53:32;3.58;;;0.38;;
76566;SDS011;65428;53.194;6.132;2023-07-13T11:18:49;2.55;;;0.38;;
76566;SDS011;65428;53.194;6.132;2023-07-13T11:21:18;2.65;;;0.40;;
76566;SDS011;65428;53.194;6.132;2023-07-13T11:24:20;2.38;;;0.55;;
76566;SDS011;65428;53.194;6.132;2023-07-13T11:31:40;4.27;;;0.60;;
76566;SDS011;65428;53.194;6.132;2023-07-13T11:34:12;3.55;;;0.57;;
76566;SDS011;65428;53.194;6.132;2023-07-13T11:36:42;3.47;;;0.40;;
76566;SDS011;65428;53.194;6.132;2023-07-13T11:41:52;3.72;;;0.50;;
76566;SDS011;65428;53.194;6.132;2023-07-13T11:44:22;2.60;;;0.40;;
76566;SDS011;65428;53.194;6.132;2023-07-13T11:46:50;3.33;;;0.57;;
76566;SDS011;65428;53.194;6.132;2023-07-13T11:49:18;4.07;;;0.80;;
76566;SDS011;65428;53.194;6.132;2023-07-13T11:51:45;3.35;;;0.57;;
76566;SDS011;65428;53.194;6.132;2023-07-13T11:54:31;3.30;;;0.70;;
76566;SDS011;65428;53.194;6.132;2023-07-13T11:56:59;2.70;;;0.50;;
76566;SDS011;65428;53.194;6.132;2023-07-13T11:59:31;3.55;;;0.50;;
76566;SDS011;65428;53.194;6.132;2023-07-13T12:01:58;2.30;;;0.30;;
76566;SDS011;65428;53.194;6.132;2023-07-13T12:04:26;1.83;;;0.40;;
76566;SDS011;65428;53.194;6.132;2023-07-13T12:07:06;4.45;;;0.60;;
76566;SDS011;65428;53.194;6.132;2023-07-13T12:09:39;3.63;;;0.60;;
76566;SDS011;65428;53.194;6.132;2023-07-13T12:12:10;2.38;;;0.30;;
76566;SDS011;65428;53.194;6.132;2023-07-13T12:14:38;2.83;;;0.30;;
76566;SDS011;65428;53.194;6.132;2023-07-13T12:17:18;3.17;;;0.40;;
76566;SDS011;65428;53.194;6.132;2023-07-13T12:19:46;2.93;;;0.50;;
76566;SDS011;65428;53.194;6.132;2023-07-13T12:22:14;3.40;;;0.40;;
76566;SDS011;65428;53.194;6.132;2023-07-13T12:24:43;3.45;;;0.40;;
76566;SDS011;65428;53.194;6.132;2023-07-13T12:27:27;3.10;;;0.38;;
76566;SDS011;65428;53.194;6.132;2023-07-13T12:30:05;4.32;;;0.47;;
76566;SDS011;65428;53.194;6.132;2023-07-13T12:33:05;2.60;;;0.40;;
76566;SDS011;65428;53.194;6.132;2023-07-13T12:35:54;3.33;;;0.50;;
76566;SDS011;65428;53.194;6.132;2023-07-13T12:38:21;3.50;;;0.50;;
76566;SDS011;65428;53.194;6.132;2023-07-13T12:40:49;3.45;;;0.40;;
76566;SDS011;65428;53.194;6.132;2023-07-13T12:43:17;2.83;;;0.40;;
76566;SDS011;65428;53.194;6.132;2023-07-13T12:45:58;2.95;;;0.40;;
76566;SDS011;65428;53.194;6.132;2023-07-13T12:48:26;3.70;;;0.50;;
76566;SDS011;65428;53.194;6.132;2023-07-13T12:50:53;2.60;;;0.45;;
76566;SDS011;65428;53.194;6.132;2023-07-13T12:53:28;3.75;;;0.57;;
76566;SDS011;65428;53.194;6.132;2023-07-13T12:55:59;3.85;;;0.65;;
76566;SDS011;65428;53.194;6.132;2023-07-13T12:58:30;4.55;;;0.70;;
76566;SDS011;65428;53.194;6.132;2023-07-13T13:01:01;3.08;;;0.70;;
76566;SDS011;65428;53.194;6.132;2023-07-13T13:03:35;3.92;;;0.60;;
76566;SDS011;65428;53.194;6.132;2023-07-13T13:06:20;4.72;;;1.15;;
76566;SDS011;65428;53.194;6.132;2023-07-13T13:08:52;4.00;;;0.70;;
76566;SDS011;65428;53.194;6.132;2023-07-13T13:11:20;4.22;;;0.88;;
76566;SDS011;65428;53.194;6.132;2023-07-13T13:13:48;4.10;;;0.80;;
76566;SDS011;65428;53.194;6.132;2023-07-13T13:16:18;3.20;;;0.50;;
76566;SDS011;65428;53.194;6.132;2023-07-13T13:18:50;5.18;;;0.80;;
76566;SDS011;65428;53.194;6.132;2023-07-13T13:21:18;3.35;;;0.60;;
76566;SDS011;65428;53.194;6.132;2023-07-13T13:23:46;3.95;;;0.93;;
76566;SDS011;65428;53.194;6.132;2023-07-13T13:26:15;3.05;;;0.60;;
76566;SDS011;65428;53.194;6.132;2023-07-13T13:28:42;7.53;;;0.90;;
76566;SDS011;65428;53.194;6.132;2023-07-13T13:31:09;3.35;;;0.70;;
76566;SDS011;65428;53.194;6.132;2023-07-13T13:33:38;2.65;;;0.50;;
76566;SDS011;65428;53.194;6.132;2023-07-13T13:36:12;4.55;;;0.77;;
76566;SDS011;65428;53.194;6.132;2023-07-13T13:38:46;4.97;;;0.73;;
76566;SDS011;65428;53.194;6.132;2023-07-13T13:41:13;6.10;;;0.70;;
76566;SDS011;65428;53.194;6.132;2023-07-13T13:43:40;5.10;;;1.10;;
76566;SDS011;65428;53.194;6.132;2023-07-13T13:46:13;3.88;;;1.00;;
76566;SDS011;65428;53.194;6.132;2023-07-13T13:48:44;6.50;;;1.20;;
76566;SDS011;65428;53.194;6.132;2023-07-13T13:53:44;3.97;;;0.90;;
76566;SDS011;65428;53.194;6.132;2023-07-13T13:56:11;4.65;;;0.60;;
76566;SDS011;65428;53.194;6.132;2023-07-13T13:58:37;3.67;;;0.60;;
76566;SDS011;65428;53.194;6.132;2023-07-13T14:01:03;3.58;;;0.40;;
76566;SDS011;65428;53.194;6.132;2023-07-13T14:03:33;3.28;;;0.70;;
76566;SDS011;65428;53.194;6.132;2023-07-13T14:05:59;2.72;;;0.40;;
76566;SDS011;65428;53.194;6.132;2023-07-13T14:08:25;3.07;;;0.40;;
76566;SDS011;65428;53.194;6.132;2023-07-13T14:10:53;3.10;;;0.45;;
76566;SDS011;65428;53.194;6.132;2023-07-13T14:13:21;2.63;;;0.40;;
76566;SDS011;65428;53.194;6.132;2023-07-13T14:15:52;3.78;;;0.77;;
76566;SDS011;65428;53.194;6.132;2023-07-13T14:18:18;3.10;;;0.50;;
76566;SDS011;65428;53.194;6.132;2023-07-13T14:20:47;5.07;;;0.80;;
76566;SDS011;65428;53.194;6.132;2023-07-13T14:23:14;4.43;;;0.90;;
76566;SDS011;65428;53.194;6.132;2023-07-13T14:25:41;3.55;;;0.70;;
76566;SDS011;65428;53.194;6.132;2023-07-13T14:28:26;3.67;;;0.90;;
76566;SDS011;65428;53.194;6.132;2023-07-13T14:30:54;4.32;;;0.82;;
76566;SDS011;65428;53.194;6.132;2023-07-13T14:33:21;4.97;;;0.95;;
76566;SDS011;65428;53.194;6.132;2023-07-13T14:35:49;4.88;;;0.88;;
76566;SDS011;65428;53.194;6.132;2023-07-13T14:38:15;4.97;;;1.05;;
76566;SDS011;65428;53.194;6.132;2023-07-13T14:40:43;6.82;;;1.00;;
76566;SDS011;65428;53.194;6.132;2023-07-13T14:43:09;6.35;;;1.20;;
76566;SDS011;65428;53.194;6.132;2023-07-13T14:45:42;5.05;;;0.90;;
76566;SDS011;65428;53.194;6.132;2023-07-13T14:48:21;5.65;;;0.90;;
76566;SDS011;65428;53.194;6.132;2023-07-13T14:50:56;4.97;;;0.93;;
76566;SDS011;65428;53.194;6.132;2023-07-13T14:53:24;5.40;;;1.10;;
76566;SDS011;65428;53.194;6.132;2023-07-13T14:55:52;7.20;;;1.00;;
76566;SDS011;65428;53.194;6.132;2023-07-13T14:58:19;4.65;;;1.17;;
76566;SDS011;65428;53.194;6.132;2023-07-13T15:00:45;4.40;;;0.95;;
76566;SDS011;65428;53.194;6.132;2023-07-13T15:03:19;3.85;;;0.70;;
76566;SDS011;65428;53.194;6.132;2023-07-13T15:05:46;6.18;;;1.10;;
76566;SDS011;65428;53.194;6.132;2023-07-13T15:08:13;4.75;;;1.08;;
76566;SDS011;65428;53.194;6.132;2023-07-13T15:10:40;4.93;;;1.15;;
76566;SDS011;65428;53.194;6.132;2023-07-13T15:13:14;4.65;;;1.10;;
76566;SDS011;65428;53.194;6.132;2023-07-13T15:15:43;5.00;;;1.00;;
76566;SDS011;65428;53.194;6.132;2023-07-13T15:18:12;5.53;;;1.20;;
76566;SDS011;65428;53.194;6.132;2023-07-13T15:20:39;5.82;;;1.10;;
76566;SDS011;65428;53.194;6.132;2023-07-13T15:23:05;4.85;;;1.15;;
76566;SDS011;65428;53.194;6.132;2023-07-13T15:25:32;4.67;;;1.07;;
76566;SDS011;65428;53.194;6.132;2023-07-13T15:27:58;5.28;;;0.90;;
76566;SDS011;65428;53.194;6.132;2023-07-13T15:30:27;7.10;;;1.67;;
76566;SDS011;65428;53.194;6.132;2023-07-13T15:32:56;5.95;;;1.20;;
76566;SDS011;65428;53.194;6.132;2023-07-13T15:35:26;4.15;;;1.02;;
76566;SDS011;65428;53.194;6.132;2023-07-13T15:37:53;5.07;;;1.50;;
76566;SDS011;65428;53.194;6.132;2023-07-13T15:40:19;3.83;;;0.75;;
76566;SDS011;65428;53.194;6.132;2023-07-13T15:42:49;5.95;;;1.30;;
76566;SDS011;65428;53.194;6.132;2023-07-13T15:47:46;5.47;;;1.25;;
76566;SDS011;65428;53.194;6.132;2023-07-13T15:50:13;5.43;;;1.05;;